Time;durP1;ratioP1;P1;durP2;ratioP2;P2;SDS_P1;SDS_P2;PMS_P1;PMS_P2;Temp;Humidity;BMP_temperature;BMP_pressure;BME280_temperature;BME280_humidity;BME280_pressure;Samples;Min_cycle;Max_cycle;Signal;HPM_P1;HPM_P2
2023/08/17 00:01:37;;;;;;;12.43;9.13;;;18.80;99.90;;;;;;7612160;19;20010;-75
2023/08/17 00:04:10;;;;;;;12.25;9.23;;;18.80;99.90;;;;;;7608087;19;20022;-72
2023/08/17 00:06:42;;;;;;;15.20;9.68;;;18.80;99.90;;;;;;7612995;19;20018;-73
2023/08/17 00:09:15;;;;;;;11.77;9.30;;;18.70;99.90;;;;;;7614887;19;20026;-74
2023/08/17 00:11:47;;;;;;;18.17;9.63;;;18.70;99.90;;;;;;7611762;19;20019;-74
2023/08/17 00:14:19;;;;;;;13.80;9.05;;;18.70;99.90;;;;;;7608392;19;20019;-73
2023/08/17 00:16:52;;;;;;;10.30;8.60;;;18.70;99.90;;;;;;7618503;19;20018;-73
2023/08/17 00:19:24;;;;;;;12.60;9.25;;;18.60;99.90;;;;;;7620268;19;20025;-72
2023/08/17 00:21:56;;;;;;;12.82;9.75;;;18.60;99.90;;;;;;7618384;19;20013;-74
2023/08/17 00:24:29;;;;;;;14.63;9.18;;;18.50;99.90;;;;;;7622012;19;20019;-73
2023/08/17 00:27:01;;;;;;;16.13;8.95;;;18.50;99.90;;;;;;7626080;19;21010;-72
2023/08/17 00:29:35;;;;;;;16.52;9.23;;;18.50;99.90;;;;;;7620202;19;20090;-74
2023/08/17 00:32:07;;;;;;;12.55;8.98;;;18.40;99.90;;;;;;7638003;19;20038;-73
2023/08/17 00:34:41;;;;;;;12.00;9.07;;;18.40;99.90;;;;;;7628933;19;21018;-72
2023/08/17 00:37:13;;;;;;;13.02;9.25;;;18.40;99.90;;;;;;7624050;19;20907;-73
2023/08/17 00:39:45;;;;;;;17.13;9.48;;;18.40;99.90;;;;;;7619714;19;20039;-74
2023/08/17 00:42:18;;;;;;;12.98;9.18;;;18.40;99.90;;;;;;7618118;19;20018;-73
2023/08/17 00:44:50;;;;;;;16.17;10.15;;;18.40;99.90;;;;;;7600554;19;20026;-72
2023/08/17 00:47:24;;;;;;;13.63;9.07;;;18.50;99.90;;;;;;7607459;19;20050;-72
2023/08/17 00:49:59;;;;;;;16.80;10.40;;;18.50;99.90;;;;;;7610288;19;20018;-73
2023/08/17 00:52:33;;;;;;;14.10;9.45;;;18.50;99.90;;;;;;7608958;19;20932;-74
2023/08/17 00:55:06;;;;;;;11.07;9.07;;;18.50;99.90;;;;;;7608014;19;20026;-73
2023/08/17 00:57:40;;;;;;;10.63;8.77;;;18.50;99.90;;;;;;7609303;19;20486;-72
2023/08/17 01:00:13;;;;;;;;;;;18.40;99.90;;;;;;7607305;19;20026;-74
2023/08/17 01:02:49;;;;;;;10.75;8.70;;;18.40;99.90;;;;;;7608441;19;20674;-73
2023/08/17 01:05:23;;;;;;;17.20;10.90;;;18.30;99.90;;;;;;7604878;19;20023;-72
2023/08/17 01:07:55;;;;;;;13.30;9.43;;;18.30;99.90;;;;;;7605862;19;20028;-74
2023/08/17 01:10:49;;;;;;;13.85;11.30;;;18.20;99.90;;;;;;7600897;19;20029;-73
2023/08/17 01:13:30;;;;;;;14.73;9.43;;;18.20;99.90;;;;;;7595405;19;20140;-73
2023/08/17 01:16:07;;;;;;;11.07;9.35;;;18.20;99.90;;;;;;7604562;19;20784;-72
2023/08/17 01:18:40;;;;;;;10.10;8.48;;;18.20;99.90;;;;;;7602209;19;20040;-74
2023/08/17 01:21:16;;;;;;;12.98;9.20;;;18.20;99.90;;;;;;7600385;19;20601;-74
2023/08/17 01:23:49;;;;;;;16.30;9.82;;;18.10;99.90;;;;;;7601868;19;20078;-73
2023/08/17 01:26:22;;;;;;;13.07;9.90;;;18.30;99.90;;;;;;7598087;19;20026;-74
2023/08/17 01:28:55;;;;;;;11.15;9.45;;;18.40;99.90;;;;;;7602452;19;20459;-74
2023/08/17 01:31:31;;;;;;;;;;;18.30;99.90;;;;;;7596293;19;20018;-73
2023/08/17 01:34:07;;;;;;;13.75;10.43;;;18.20;99.90;;;;;;7599454;19;20859;-75
2023/08/17 01:36:45;;;;;;;15.52;9.90;;;18.10;99.90;;;;;;7599757;19;20054;-73
2023/08/17 01:39:17;;;;;;;13.68;9.25;;;18.10;99.90;;;;;;7595645;19;20014;-72
2023/08/17 01:41:52;;;;;;;17.67;10.02;;;18.10;99.90;;;;;;7596041;19;20919;-74
2023/08/17 01:44:25;;;;;;;13.90;9.43;;;18.10;99.90;;;;;;7590229;19;20877;-72
2023/08/17 01:46:58;;;;;;;13.90;9.20;;;18.00;99.90;;;;;;7601720;19;20015;-72
2023/08/17 01:49:30;;;;;;;15.20;9.60;;;18.00;99.90;;;;;;7597117;19;20017;-74
2023/08/17 01:52:03;;;;;;;13.57;9.38;;;17.90;99.90;;;;;;7598630;19;20082;-73
2023/08/17 01:54:36;;;;;;;12.98;9.38;;;17.90;99.90;;;;;;7594176;19;20643;-73
2023/08/17 01:57:08;;;;;;;15.73;10.40;;;18.00;99.90;;;;;;7598011;19;20018;-73
2023/08/17 01:59:40;;;;;;;11.65;9.35;;;18.20;99.90;;;;;;7595871;19;20022;-73
2023/08/17 02:02:14;;;;;;;11.98;9.25;;;18.10;99.90;;;;;;7594804;19;20723;-74
2023/08/17 02:04:46;;;;;;;16.80;8.90;;;18.00;99.90;;;;;;7592733;19;20415;-73
2023/08/17 02:07:19;;;;;;;18.37;9.90;;;18.00;99.90;;;;;;7599817;19;20503;-73
2023/08/17 02:09:54;;;;;;;10.05;8.75;;;18.00;99.90;;;;;;7597075;19;20283;-74
2023/08/17 02:12:26;;;;;;;17.35;10.10;;;18.00;99.90;;;;;;7594813;19;20026;-73
2023/08/17 02:14:59;;;;;;;16.20;9.10;;;18.10;99.90;;;;;;7592836;19;20900;-73
2023/08/17 02:17:31;;;;;;;20.00;9.80;;;18.00;99.90;;;;;;7594291;19;20706;-73
2023/08/17 02:20:04;;;;;;;19.30;9.43;;;17.90;99.90;;;;;;7596265;19;20496;-73
2023/08/17 02:22:36;;;;;;;13.97;10.80;;;17.90;99.90;;;;;;7584628;19;20014;-74
2023/08/17 02:25:09;;;;;;;12.80;10.38;;;17.80;99.90;;;;;;7590740;19;20824;-74
2023/08/17 02:27:41;;;;;;;11.50;9.53;;;17.80;99.90;;;;;;7591955;19;21041;-74
2023/08/17 02:30:14;;;;;;;11.73;9.30;;;17.90;99.90;;;;;;7591211;19;20125;-73
2023/08/17 02:32:47;;;;;;;12.50;9.13;;;17.90;99.90;;;;;;7591171;19;20026;-73
2023/08/17 02:35:19;;;;;;;14.32;9.85;;;17.90;99.90;;;;;;7594147;19;20449;-73
2023/08/17 02:37:51;;;;;;;15.52;9.35;;;17.80;99.90;;;;;;7590171;19;20070;-73
2023/08/17 02:40:24;;;;;;;14.40;9.18;;;17.80;99.90;;;;;;7592782;19;20018;-73
2023/08/17 02:42:56;;;;;;;16.33;9.85;;;17.70;99.90;;;;;;7593631;19;20051;-73
2023/08/17 02:45:29;;;;;;;15.05;11.60;;;17.80;99.90;;;;;;7591749;19;20037;-72
2023/08/17 02:48:02;;;;;;;14.45;10.95;;;17.90;99.90;;;;;;7596315;19;20093;-72
2023/08/17 02:50:34;;;;;;;16.30;12.07;;;18.10;99.90;;;;;;7585488;19;20129;-73
2023/08/17 02:53:07;;;;;;;15.77;11.68;;;18.10;99.90;;;;;;7582316;19;20106;-74
2023/08/17 02:55:39;;;;;;;16.58;12.30;;;18.10;99.90;;;;;;7580253;19;21770;-74
2023/08/17 02:58:12;;;;;;;18.48;12.98;;;18.10;99.90;;;;;;7592301;19;20690;-75
2023/08/17 03:00:44;;;;;;;16.35;12.60;;;18.00;99.90;;;;;;7583368;19;20602;-75
2023/08/17 03:03:18;;;;;;;16.15;12.38;;;17.90;99.90;;;;;;7594829;19;20014;-76
2023/08/17 03:05:51;;;;;;;17.15;12.75;;;18.00;99.90;;;;;;7587980;19;20019;-72
2023/08/17 03:08:23;;;;;;;16.73;12.75;;;18.00;99.90;;;;;;7595308;19;20015;-73
2023/08/17 03:10:57;;;;;;;17.83;12.07;;;18.00;99.90;;;;;;7589995;19;20022;-74
2023/08/17 03:13:29;;;;;;;15.13;11.70;;;18.00;99.90;;;;;;7590772;19;20908;-73
2023/08/17 03:16:03;;;;;;;15.13;11.80;;;18.00;99.90;;;;;;7590917;19;20029;-76
2023/08/17 03:18:35;;;;;;;16.27;12.87;;;18.10;99.90;;;;;;7590056;19;20416;-74
2023/08/17 03:21:07;;;;;;;14.18;12.50;;;18.10;99.90;;;;;;7593856;19;20014;-74
2023/08/17 03:23:40;;;;;;;14.20;12.02;;;18.10;99.90;;;;;;7580555;19;20010;-73
2023/08/17 03:26:13;;;;;;;17.05;12.20;;;18.10;99.90;;;;;;7591567;19;20015;-72
2023/08/17 03:28:45;;;;;;;14.57;11.85;;;18.00;99.90;;;;;;7589322;19;20022;-73
2023/08/17 03:31:21;;;;;;;17.10;13.15;;;17.90;99.90;;;;;;7593144;19;20331;-73
2023/08/17 03:33:55;;;;;;;16.52;11.52;;;17.90;99.90;;;;;;7584333;19;21533;-73
2023/08/17 03:36:28;;;;;;;15.73;11.73;;;17.90;99.90;;;;;;7592920;19;20022;-74
2023/08/17 03:39:00;;;;;;;14.18;11.93;;;18.00;99.90;;;;;;7584116;19;20019;-74
2023/08/17 03:41:32;;;;;;;13.25;10.73;;;17.90;99.90;;;;;;7592058;19;20018;-72
2023/08/17 03:44:05;;;;;;;15.18;12.23;;;17.90;99.90;;;;;;7583338;19;20289;-75
2023/08/17 03:46:38;;;;;;;16.77;11.75;;;17.80;99.90;;;;;;7587330;19;20044;-72
2023/08/17 03:49:11;;;;;;;17.55;12.73;;;17.80;99.90;;;;;;7591563;19;20015;-72
2023/08/17 03:51:43;;;;;;;19.60;12.03;;;17.70;99.90;;;;;;7586878;19;20015;-76
2023/08/17 03:54:17;;;;;;;15.63;12.07;;;17.60;99.90;;;;;;7587743;19;20291;-75
2023/08/17 03:56:49;;;;;;;11.75;9.85;;;17.60;99.90;;;;;;7587023;19;20841;-74
2023/08/17 03:59:21;;;;;;;14.90;11.25;;;17.60;99.90;;;;;;7589202;19;20889;-75
2023/08/17 04:01:54;;;;;;;17.65;12.75;;;17.60;99.90;;;;;;7586545;19;20345;-74
2023/08/17 04:04:27;;;;;;;16.88;12.10;;;17.50;99.90;;;;;;7592387;19;20032;-75
2023/08/17 04:07:00;;;;;;;12.57;10.70;;;17.50;99.90;;;;;;7587495;19;20025;-75
2023/08/17 04:09:33;;;;;;;14.63;10.85;;;17.50;99.90;;;;;;7597497;19;20044;-76
2023/08/17 04:12:06;;;;;;;16.65;11.40;;;17.50;99.90;;;;;;7597026;19;20058;-75
2023/08/17 04:14:41;;;;;;;20.63;11.57;;;17.50;99.90;;;;;;7596074;19;20018;-75
2023/08/17 04:17:13;;;;;;;15.48;11.45;;;17.40;99.90;;;;;;7597171;19;20046;-74
2023/08/17 04:19:46;;;;;;;13.13;11.47;;;17.40;99.90;;;;;;7592071;19;20022;-75
2023/08/17 04:22:18;;;;;;;17.92;12.00;;;17.40;99.90;;;;;;7596623;19;20673;-76
2023/08/17 04:24:50;;;;;;;16.27;12.45;;;17.40;99.90;;;;;;7590803;19;20678;-74
2023/08/17 04:27:22;;;;;;;15.68;12.73;;;17.40;99.90;;;;;;7596000;19;21239;-74
2023/08/17 04:29:56;;;;;;;17.85;13.00;;;17.30;99.90;;;;;;7596247;19;20010;-76
2023/08/17 04:32:29;;;;;;;15.77;12.57;;;17.30;99.90;;;;;;7602443;19;20022;-75
2023/08/17 04:35:02;;;;;;;19.67;12.45;;;17.40;99.90;;;;;;7592508;19;20022;-74
2023/08/17 04:37:34;;;;;;;14.30;11.40;;;17.40;99.90;;;;;;7596116;19;20022;-76
2023/08/17 04:40:08;;;;;;;18.92;12.85;;;17.30;99.90;;;;;;7588002;19;20042;-74
2023/08/17 04:42:41;;;;;;;16.48;11.43;;;17.30;99.90;;;;;;7595762;19;20029;-74
2023/08/17 04:45:13;;;;;;;16.20;12.40;;;17.30;99.90;;;;;;7590416;19;20018;-76
2023/08/17 04:47:49;;;;;;;16.30;11.50;;;17.40;99.90;;;;;;7592525;19;20091;-74
2023/08/17 04:50:22;;;;;;;17.45;12.35;;;17.40;99.90;;;;;;7592931;19;20019;-75
2023/08/17 04:52:54;;;;;;;16.63;11.60;;;17.40;99.90;;;;;;7581070;19;20029;-74
2023/08/17 04:55:27;;;;;;;17.60;12.88;;;17.50;99.90;;;;;;7592160;19;20376;-74
2023/08/17 04:58:00;;;;;;;16.75;11.57;;;17.40;99.90;;;;;;7591685;19;20055;-74
2023/08/17 05:00:33;;;;;;;18.63;12.00;;;17.40;99.90;;;;;;7595515;19;20026;-74
2023/08/17 05:03:05;;;;;;;12.98;11.68;;;17.40;99.90;;;;;;7591203;19;20018;-74
2023/08/17 05:05:48;;;;;;;19.55;14.85;;;17.50;99.90;;;;;;7585577;19;20718;-74
2023/08/17 05:08:22;;;;;;;23.20;16.08;;;17.60;99.90;;;;;;7594221;19;20018;-73
2023/08/17 05:10:54;;;;;;;18.77;15.40;;;17.60;99.90;;;;;;7593641;19;20041;-74
2023/08/17 05:13:26;;;;;;;18.05;14.25;;;17.70;99.90;;;;;;7592077;19;20023;-74
2023/08/17 05:16:02;;;;;;;17.65;15.05;;;17.80;99.90;;;;;;7591747;19;20094;-74
2023/08/17 05:18:35;;;;;;;17.60;14.07;;;17.90;99.90;;;;;;7594461;19;20018;-75
2023/08/17 05:21:07;;;;;;;16.73;15.02;;;18.00;99.90;;;;;;7589981;19;20934;-76
2023/08/17 05:23:40;;;;;;;22.02;15.60;;;18.00;99.90;;;;;;7596631;19;21013;-74
2023/08/17 05:26:12;;;;;;;22.95;14.93;;;18.00;99.90;;;;;;7590982;19;20014;-75
2023/08/17 05:28:48;;;;;;;17.83;14.68;;;18.10;99.90;;;;;;7593745;19;20834;-74
2023/08/17 05:31:20;;;;;;;15.80;14.10;;;18.10;99.90;;;;;;7593304;19;20045;-75
2023/08/17 05:33:54;;;;;;;17.77;13.50;;;18.10;99.90;;;;;;7589563;19;20026;-74
2023/08/17 05:36:29;;;;;;;16.10;13.57;;;18.20;99.90;;;;;;7593664;19;20026;-75
2023/08/17 05:39:01;;;;;;;14.05;12.40;;;18.30;99.90;;;;;;7591301;19;20021;-75
2023/08/17 05:41:34;;;;;;;17.42;12.80;;;18.20;99.90;;;;;;7590929;19;20047;-74
2023/08/17 05:44:06;;;;;;;15.75;11.38;;;18.40;99.90;;;;;;7580676;19;20345;-75
2023/08/17 05:46:39;;;;;;;14.80;11.38;;;18.60;99.90;;;;;;7589996;19;20022;-75
2023/08/17 05:49:12;;;;;;;15.18;11.85;;;18.70;99.90;;;;;;7589433;19;20048;-76
2023/08/17 05:51:44;;;;;;;15.20;11.93;;;18.80;99.90;;;;;;7595477;19;20022;-74
2023/08/17 05:54:17;;;;;;;14.85;11.25;;;19.00;99.90;;;;;;7584977;19;20029;-75
2023/08/17 05:56:49;;;;;;;14.02;11.65;;;19.00;99.90;;;;;;7589121;19;20041;-74
2023/08/17 05:59:21;;;;;;;18.42;11.95;;;19.00;99.90;;;;;;7592959;19;20014;-76
2023/08/17 06:01:53;;;;;;;16.83;11.10;;;19.20;99.90;;;;;;7591491;19;20022;-74
2023/08/17 06:04:26;;;;;;;13.82;11.02;;;19.30;99.90;;;;;;7589309;19;20023;-75
2023/08/17 06:06:58;;;;;;;15.10;11.35;;;19.40;99.90;;;;;;7593579;19;20037;-76
2023/08/17 06:09:30;;;;;;;14.48;11.60;;;19.50;99.90;;;;;;7595356;19;20105;-75
2023/08/17 06:12:03;;;;;;;23.73;11.60;;;19.50;99.90;;;;;;7591593;19;20027;-75
2023/08/17 06:14:35;;;;;;;11.82;10.10;;;19.60;99.90;;;;;;7588610;19;20591;-76
2023/08/17 06:17:08;;;;;;;16.67;11.38;;;19.70;99.90;;;;;;7585586;19;20988;-74
2023/08/17 06:19:40;;;;;;;11.52;10.07;;;19.80;99.90;;;;;;7593951;19;20022;-76
2023/08/17 06:22:12;;;;;;;12.15;10.45;;;19.90;99.90;;;;;;7591542;19;20015;-73
2023/08/17 06:24:44;;;;;;;16.05;10.18;;;20.10;99.90;;;;;;7592113;19;20018;-74
2023/08/17 06:27:17;;;;;;;12.55;10.27;;;20.20;99.90;;;;;;7589608;19;20015;-74
2023/08/17 06:29:49;;;;;;;14.90;9.82;;;20.30;99.90;;;;;;7593865;19;21207;-75
2023/08/17 06:32:21;;;;;;;12.45;9.68;;;20.40;99.90;;;;;;7590469;19;20883;-74
2023/08/17 06:34:54;;;;;;;18.98;9.50;;;20.50;99.90;;;;;;7589071;19;21121;-74
2023/08/17 06:37:26;;;;;;;12.77;9.40;;;20.60;99.90;;;;;;7592099;19;20017;-75
2023/08/17 06:39:59;;;;;;;16.13;10.10;;;20.80;99.90;;;;;;7589306;19;20018;-73
2023/08/17 06:42:32;;;;;;;12.43;8.10;;;20.80;99.90;;;;;;7593835;19;20010;-73
2023/08/17 06:45:06;;;;;;;10.65;9.05;;;20.90;99.90;;;;;;7587727;19;20028;-73
2023/08/17 06:47:38;;;;;;;14.20;8.00;;;21.00;99.90;;;;;;7592756;19;20094;-73
2023/08/17 06:50:11;;;;;;;11.02;8.20;;;21.20;99.90;;;;;;7591980;19;20018;-73
2023/08/17 06:52:44;;;;;;;9.65;7.93;;;21.30;99.90;;;;;;7591975;19;20022;-73
2023/08/17 06:55:16;;;;;;;12.68;8.20;;;21.40;99.90;;;;;;7585713;19;20447;-73
2023/08/17 06:57:51;;;;;;;9.97;8.00;;;21.50;99.90;;;;;;7592451;19;21059;-73
2023/08/17 07:00:25;;;;;;;9.43;8.05;;;21.60;99.90;;;;;;7592547;19;20021;-74
2023/08/17 07:02:58;;;;;;;10.80;8.90;;;21.70;99.90;;;;;;7592862;19;20874;-74
2023/08/17 07:05:32;;;;;;;10.23;7.43;;;21.90;99.90;;;;;;7590036;19;20018;-73
2023/08/17 07:08:05;;;;;;;12.97;8.30;;;22.10;99.90;;;;;;7590655;19;20015;-73
2023/08/17 07:10:37;;;;;;;9.25;7.75;;;22.20;99.90;;;;;;7595882;19;20029;-73
2023/08/17 07:13:09;;;;;;;9.68;7.95;;;22.20;99.90;;;;;;7590304;19;20037;-73
2023/08/17 07:15:42;;;;;;;11.20;8.05;;;22.40;99.90;;;;;;7590183;19;20056;-73
2023/08/17 07:18:14;;;;;;;9.70;8.13;;;22.50;99.90;;;;;;7591473;19;20968;-74
2023/08/17 07:20:46;;;;;;;12.10;7.67;;;22.60;99.90;;;;;;7591217;19;20019;-73
2023/08/17 07:23:19;;;;;;;9.68;8.45;;;22.80;99.90;;;;;;7589380;19;20030;-74
2023/08/17 07:25:51;;;;;;;10.82;8.02;;;23.00;99.90;;;;;;7589476;19;20898;-73
2023/08/17 07:28:24;;;;;;;10.15;8.20;;;23.00;99.90;;;;;;7592549;19;20705;-73
2023/08/17 07:30:56;;;;;;;16.15;9.15;;;23.20;99.90;;;;;;7593192;19;20010;-73
2023/08/17 07:33:29;;;;;;;10.73;8.45;;;23.20;99.90;;;;;;7594333;19;20026;-73
2023/08/17 07:36:01;;;;;;;11.77;8.80;;;23.30;99.90;;;;;;7586938;19;20018;-74
2023/08/17 07:38:33;;;;;;;9.05;7.72;;;23.40;99.90;;;;;;7591183;19;20044;-73
2023/08/17 07:41:06;;;;;;;10.82;7.75;;;23.40;99.90;;;;;;7593574;19;20021;-74
2023/08/17 07:43:38;;;;;;;13.95;9.38;;;23.50;99.90;;;;;;7588447;19;20024;-73
2023/08/17 07:46:11;;;;;;;11.77;7.88;;;23.50;99.90;;;;;;7595180;19;20022;-74
2023/08/17 07:48:43;;;;;;;13.32;8.63;;;23.60;99.90;;;;;;7600217;19;20689;-73
2023/08/17 07:51:16;;;;;;;15.13;9.20;;;23.80;99.90;;;;;;7600657;19;20029;-73
2023/08/17 07:53:48;;;;;;;10.52;8.18;;;23.80;99.90;;;;;;7595747;19;20016;-74
2023/08/17 07:56:20;;;;;;;10.30;7.65;;;23.90;99.90;;;;;;7599698;19;20059;-72
2023/08/17 07:58:55;;;;;;;10.65;8.25;;;23.90;99.90;;;;;;7606351;19;21177;-74
2023/08/17 08:01:28;;;;;;;8.30;7.43;;;24.00;99.90;;;;;;7601432;19;20565;-73
2023/08/17 08:04:01;;;;;;;9.85;7.57;;;24.10;99.90;;;;;;7596884;19;20026;-73
2023/08/17 08:06:33;;;;;;;8.95;7.65;;;24.20;99.90;;;;;;7597428;19;20026;-74
2023/08/17 08:09:06;;;;;;;10.15;7.60;;;24.30;99.90;;;;;;7596797;19;20025;-73
2023/08/17 08:11:39;;;;;;;7.65;6.13;;;24.50;99.90;;;;;;7597277;19;20034;-73
2023/08/17 08:14:11;;;;;;;8.73;6.82;;;24.70;99.90;;;;;;7590943;19;20474;-73
2023/08/17 08:16:43;;;;;;;10.23;7.15;;;24.80;99.90;;;;;;7598401;19;20867;-74
2023/08/17 08:19:16;;;;;;;10.73;7.05;;;25.00;99.90;;;;;;7603555;19;20055;-73
2023/08/17 08:21:48;;;;;;;8.13;6.28;;;25.00;99.90;;;;;;7590058;19;20015;-73
2023/08/17 08:24:20;;;;;;;7.15;6.45;;;25.20;99.90;;;;;;7592421;19;20025;-72
2023/08/17 08:27:09;;;;;;;8.93;6.30;;;25.20;99.90;;;;;;7595349;19;20043;-74
2023/08/17 08:29:41;;;;;;;7.50;6.60;;;25.30;99.90;;;;;;7599768;19;20041;-72
2023/08/17 08:32:13;;;;;;;9.02;6.22;;;25.40;99.90;;;;;;7597718;19;20074;-74
2023/08/17 08:34:46;;;;;;;7.57;6.78;;;25.60;99.90;;;;;;7598656;19;20022;-73
2023/08/17 08:37:18;;;;;;;10.50;6.75;;;25.70;99.90;;;;;;7595602;19;21038;-73
2023/08/17 08:39:52;;;;;;;8.52;6.75;;;25.60;99.90;;;;;;7597748;19;21270;-74
2023/08/17 08:42:25;;;;;;;9.63;6.93;;;25.70;99.90;;;;;;7600775;19;20018;-73
2023/08/17 08:44:58;;;;;;;7.90;6.03;;;25.60;99.90;;;;;;7592884;19;20006;-73
2023/08/17 08:47:34;;;;;;;7.75;6.63;;;25.60;99.90;;;;;;7595755;19;20101;-74
2023/08/17 08:50:07;;;;;;;7.72;6.13;;;25.70;99.90;;;;;;7596518;19;20063;-74
2023/08/17 08:52:44;;;;;;;11.07;6.13;;;25.90;99.90;;;;;;7600230;19;20018;-74
2023/08/17 08:55:19;;;;;;;8.68;6.47;;;25.80;99.90;;;;;;7587976;19;20029;-74
2023/08/17 08:57:53;;;;;;;8.13;6.63;;;25.80;99.90;;;;;;7595579;19;20018;-73
2023/08/17 09:00:26;;;;;;;8.93;6.25;;;25.90;99.90;;;;;;7594847;19;20014;-73
2023/08/17 09:03:01;;;;;;;11.00;6.28;;;26.00;99.90;;;;;;7596730;19;20029;-73
2023/08/17 09:05:34;;;;;;;6.80;6.15;;;26.00;99.90;;;;;;7592335;19;21031;-74
2023/08/17 09:08:09;;;;;;;8.50;6.45;;;26.00;99.90;;;;;;7597118;19;20910;-72
2023/08/17 09:10:47;;;;;;;9.43;6.22;;;26.00;99.90;;;;;;7600240;19;20053;-74
2023/08/17 09:13:22;;;;;;;8.27;6.28;;;26.10;99.90;;;;;;7594566;19;20916;-75
2023/08/17 09:16:01;;;;;;;7.53;6.45;;;26.20;99.90;;;;;;7596066;19;20114;-73
2023/08/17 09:18:39;;;;;;;8.10;6.18;;;26.10;99.90;;;;;;7602195;19;20094;-73
2023/08/17 09:21:24;;;;;;;7.75;6.07;;;26.20;99.90;;;;;;7596080;19;20014;-73
2023/08/17 09:23:57;;;;;;;6.68;6.00;;;26.30;99.90;;;;;;7584894;19;20041;-74
2023/08/17 09:26:32;;;;;;;6.50;5.90;;;26.30;99.90;;;;;;7596692;19;21102;-73
2023/08/17 09:29:18;;;;;;;8.38;6.22;;;26.20;99.90;;;;;;7600678;19;20010;-72
2023/08/17 09:31:50;;;;;;;6.88;6.00;;;26.30;99.90;;;;;;7604355;19;20435;-73
2023/08/17 09:34:23;;;;;;;8.18;6.32;;;26.30;99.90;;;;;;7602714;19;20026;-73
2023/08/17 09:37:05;;;;;;;10.85;6.00;;;26.40;99.90;;;;;;7598242;19;20027;-74
2023/08/17 09:39:38;;;;;;;7.15;5.78;;;26.50;99.90;;;;;;7597365;19;20931;-73
2023/08/17 09:42:11;;;;;;;7.75;6.15;;;26.60;99.90;;;;;;7595899;19;20017;-72
2023/08/17 09:44:43;;;;;;;6.88;5.80;;;26.70;99.90;;;;;;7596290;19;20023;-74
2023/08/17 09:47:22;;;;;;;9.38;5.97;;;26.80;99.90;;;;;;7595911;19;20022;-73
2023/08/17 09:49:55;;;;;;;10.68;5.68;;;26.80;99.90;;;;;;7602350;19;21160;-74
2023/08/17 09:52:27;;;;;;;9.45;5.88;;;26.90;99.90;;;;;;7598344;19;20014;-73
2023/08/17 09:55:03;;;;;;;7.00;5.80;;;27.00;99.90;;;;;;7596874;19;20040;-74
2023/08/17 09:57:41;;;;;;;7.35;6.07;;;27.10;99.90;;;;;;7597655;19;20022;-73
2023/08/17 10:00:13;;;;;;;6.00;5.40;;;27.30;99.90;;;;;;7592583;19;20384;-74
2023/08/17 10:02:50;;;;;;;6.43;5.82;;;27.40;99.90;;;;;;7596839;19;20491;-73
2023/08/17 10:05:22;;;;;;;5.57;4.95;;;27.50;99.30;;;;;;7593066;19;20027;-73
2023/08/17 10:07:59;;;;;;;6.10;5.50;;;27.50;98.70;;;;;;7596025;19;20018;-72
2023/08/17 10:10:38;;;;;;;6.68;5.68;;;27.60;98.50;;;;;;7595549;19;20164;-72
2023/08/17 10:13:26;;;;;;;14.45;5.70;;;27.60;97.90;;;;;;7599564;19;20026;-72
2023/08/17 10:16:13;;;;;;;7.07;5.60;;;27.70;97.90;;;;;;7595110;19;20575;-74
2023/08/17 10:18:57;;;;;;;9.43;5.82;;;27.90;98.00;;;;;;7596619;19;20019;-72
2023/08/17 10:21:43;;;;;;;6.03;5.38;;;28.00;96.80;;;;;;7590389;19;20443;-74
2023/08/17 10:24:17;;;;;;;5.97;5.38;;;28.00;95.60;;;;;;7590228;19;20025;-74
2023/08/17 10:26:50;;;;;;;5.65;5.15;;;28.10;96.10;;;;;;7593728;19;20594;-74
2023/08/17 10:29:30;;;;;;;6.90;5.38;;;28.30;96.40;;;;;;7590554;19;20815;-74
2023/08/17 10:32:03;;;;;;;7.75;5.28;;;28.40;95.20;;;;;;7596051;19;20014;-74
2023/08/17 10:34:39;;;;;;;5.65;5.05;;;28.50;95.10;;;;;;7587455;19;20070;-74
2023/08/17 10:37:12;;;;;;;;;;;28.60;96.30;;;;;;7596249;19;20018;-73
2023/08/17 10:39:48;;;;;;;7.90;5.93;;;28.70;96.60;;;;;;7593638;19;22597;-73
2023/08/17 10:42:36;;;;;;;10.07;5.82;;;28.70;96.60;;;;;;7594813;19;21515;-73
2023/08/17 10:45:31;;;;;;;7.25;5.60;;;28.80;96.00;;;;;;7588669;19;21818;-74
2023/08/17 10:48:06;;;;;;;6.87;5.77;;;29.00;95.30;;;;;;7599308;19;21171;-73
2023/08/17 10:50:39;;;;;;;7.35;5.65;;;29.00;94.30;;;;;;7590251;19;20020;-74
2023/08/17 10:53:17;;;;;;;7.85;5.65;;;29.00;94.80;;;;;;7598750;19;20851;-73
2023/08/17 10:55:57;;;;;;;7.20;6.00;;;29.20;94.70;;;;;;7591742;19;20027;-73
2023/08/17 10:58:32;;;;;;;8.05;5.43;;;29.20;93.50;;;;;;7591460;19;20026;-74
2023/08/17 11:01:05;;;;;;;6.28;5.68;;;29.30;93.20;;;;;;7597063;19;20578;-73
2023/08/17 11:03:42;;;;;;;8.18;5.85;;;29.40;93.30;;;;;;7594173;19;21580;-74
2023/08/17 11:06:17;;;;;;;6.18;5.57;;;29.50;91.00;;;;;;7596119;19;20021;-73
2023/08/17 11:08:56;;;;;;;7.65;5.80;;;29.60;91.80;;;;;;7598786;19;20626;-74
2023/08/17 11:11:31;;;;;;;8.27;6.07;;;29.70;92.70;;;;;;7595714;19;20021;-74
2023/08/17 11:14:03;;;;;;;8.15;6.22;;;30.00;91.60;;;;;;7595680;19;20914;-75
2023/08/17 11:16:35;;;;;;;6.77;5.67;;;30.20;92.50;;;;;;7593439;19;20034;-74
2023/08/17 11:19:11;;;;;;;7.43;5.85;;;30.70;91.50;;;;;;7603083;19;20277;-73
2023/08/17 11:21:45;;;;;;;6.35;5.75;;;30.80;90.40;;;;;;7598999;19;20010;-73
2023/08/17 11:24:17;;;;;;;;;;;30.90;89.10;;;;;;7603542;19;20019;-73
2023/08/17 11:26:51;;;;;;;7.05;6.03;;;31.00;90.40;;;;;;7601211;19;19926;-74
2023/08/17 11:29:23;;;;;;;;;;;31.10;90.00;;;;;;7601427;19;20011;-73
2023/08/17 11:31:55;;;;;;;8.45;6.90;;;31.00;90.50;;;;;;7608343;19;19919;-74
2023/08/17 11:34:29;;;;;;;9.07;7.65;;;30.80;92.00;;;;;;7602878;19;20018;-73
2023/08/17 11:37:02;;;;;;;8.20;7.13;;;30.80;92.50;;;;;;7600732;19;20018;-73
2023/08/17 11:39:36;;;;;;;7.18;6.47;;;31.00;92.60;;;;;;7600844;19;20010;-73
2023/08/17 11:42:09;;;;;;;7.38;6.47;;;31.30;91.40;;;;;;7602873;19;20052;-73
2023/08/17 11:44:41;;;;;;;10.33;7.67;;;31.70;92.50;;;;;;7596671;19;21301;-73
2023/08/17 11:47:16;;;;;;;9.43;8.52;;;32.00;91.90;;;;;;7603898;19;20025;-73
2023/08/17 11:49:49;;;;;;;8.95;7.50;;;32.20;91.90;;;;;;7598387;19;20609;-74
2023/08/17 11:52:26;;;;;;;8.65;7.88;;;32.50;92.60;;;;;;7600750;19;20018;-73
2023/08/17 11:54:59;;;;;;;9.32;7.20;;;32.70;90.70;;;;;;7586236;19;20534;-74
2023/08/17 11:57:33;;;;;;;9.25;7.85;;;32.90;91.10;;;;;;7597874;19;20634;-73
2023/08/17 12:00:06;;;;;;;8.80;8.00;;;33.10;90.00;;;;;;7603341;19;20019;-73
2023/08/17 12:02:42;;;;;;;8.77;7.82;;;33.30;88.00;;;;;;7601196;19;20424;-73
2023/08/17 12:05:23;;;;;;;9.02;7.50;;;33.50;90.50;;;;;;7599592;19;20117;-74
2023/08/17 12:07:55;;;;;;;8.18;7.38;;;33.70;89.90;;;;;;7602971;19;20011;-74
2023/08/17 12:10:34;;;;;;;9.77;8.68;;;33.70;88.30;;;;;;7605341;19;20029;-73
2023/08/17 12:13:11;;;;;;;10.57;8.05;;;33.60;85.40;;;;;;7608197;19;20018;-73
2023/08/17 12:15:44;;;;;;;9.02;8.07;;;33.40;85.60;;;;;;7599325;19;21312;-73
2023/08/17 12:18:22;;;;;;;9.52;8.07;;;33.30;89.10;;;;;;7606626;19;20022;-74
2023/08/17 12:20:55;;;;;;;9.25;8.10;;;33.90;88.70;;;;;;7604322;19;20490;-74
2023/08/17 12:23:28;;;;;;;10.80;8.10;;;34.10;85.60;;;;;;7590146;19;20029;-74
2023/08/17 12:26:00;;;;;;;8.85;7.55;;;34.00;82.30;;;;;;7600105;19;20933;-74
2023/08/17 12:28:35;;;;;;;10.18;8.13;;;34.20;84.60;;;;;;7598721;19;20011;-75
2023/08/17 12:31:07;;;;;;;8.68;7.70;;;34.10;81.80;;;;;;7599552;19;20042;-75
2023/08/17 12:33:40;;;;;;;9.00;7.97;;;34.20;79.70;;;;;;7598785;19;20082;-73
2023/08/17 12:36:12;;;;;;;7.95;7.25;;;33.90;81.80;;;;;;7601170;19;20447;-73
2023/08/17 12:38:44;;;;;;;10.82;8.35;;;33.80;79.70;;;;;;7604132;19;20014;-74
2023/08/17 12:41:17;;;;;;;8.45;7.70;;;33.80;78.50;;;;;;7604904;19;20649;-74
2023/08/17 12:43:49;;;;;;;;;;;33.50;79.70;;;;;;7596655;19;20052;-75
2023/08/17 12:46:22;;;;;;;8.68;7.85;;;33.40;80.80;;;;;;7601991;19;19926;-73
2023/08/17 12:48:54;;;;;;;9.35;8.38;;;33.30;79.60;;;;;;7594225;19;20923;-74
2023/08/17 12:51:26;;;;;;;10.02;7.53;;;33.40;82.20;;;;;;7603099;19;20011;-74
2023/08/17 12:54:01;;;;;;;8.10;7.30;;;33.40;80.50;;;;;;7602621;19;20014;-74
2023/08/17 12:56:35;;;;;;;8.40;6.97;;;33.60;77.60;;;;;;7599632;19;20022;-74
2023/08/17 12:59:08;;;;;;;7.82;7.13;;;33.80;75.60;;;;;;7603347;19;20064;-74
2023/08/17 13:01:40;;;;;;;9.07;7.03;;;34.00;75.00;;;;;;7601920;19;20010;-74
2023/08/17 13:04:13;;;;;;;7.68;6.85;;;34.00;73.80;;;;;;7602077;19;20021;-74
2023/08/17 13:06:48;;;;;;;8.30;6.65;;;34.40;72.70;;;;;;7598641;19;21757;-74
2023/08/17 13:09:21;;;;;;;7.38;6.65;;;34.60;71.10;;;;;;7600396;19;20474;-74
2023/08/17 13:11:53;;;;;;;7.32;6.63;;;34.80;70.70;;;;;;7598463;19;20583;-74